Airport View

Enter AWOS ICAO identifier for current METAR.

ex. KFNL

KSEG 191753Z AUTO 29014G23KT 10SM OVC075 M01/M08 A2990 RMK AO2 PK WND 31026/1735 SLP130 60000 T10061083 10028 21006 51013

19 Jan 2020 18:45

Frequency: 123.975

Phone: 570-374-4099

Other Area AWOS: KIPT - KMUI - KLHV - KRVL

TAF KIPT 191750Z 1918/2018 29013G20KT P6SM -SN BKN040 OVC050 FM200000 27011KT P6SM OVC050 FM201000 30010KT P6SM BKN250